sensor_id;sensor_type;location;lat;lon;timestamp;temperature;humidity
42145;DHT22;27813;43.516;11.890;2023-06-22T04:34:35;19.50;72.90
42145;DHT22;27813;43.516;11.890;2023-06-22T04:39:10;19.80;72.30
42145;DHT22;27813;43.516;11.890;2023-06-22T04:43:23;20.00;71.80
42145;DHT22;27813;43.516;11.890;2023-06-22T04:48:11;20.30;71.50
42145;DHT22;27813;43.516;11.890;2023-06-22T04:52:35;20.80;70.70
42145;DHT22;27813;43.516;11.890;2023-06-22T04:56:40;21.30;69.70
42145;DHT22;27813;43.516;11.890;2023-06-22T05:00:44;21.80;68.80
42145;DHT22;27813;43.516;11.890;2023-06-22T05:04:48;22.40;67.70
42145;DHT22;27813;43.516;11.890;2023-06-22T05:08:56;23.00;66.60
42145;DHT22;27813;43.516;11.890;2023-06-22T05:13:04;23.50;65.40
42145;DHT22;27813;43.516;11.890;2023-06-22T05:17:08;23.90;64.70
42145;DHT22;27813;43.516;11.890;2023-06-22T05:21:22;24.30;64.00
42145;DHT22;27813;43.516;11.890;2023-06-22T05:25:26;25.00;63.00
42145;DHT22;27813;43.516;11.890;2023-06-22T05:29:33;25.50;61.90
42145;DHT22;27813;43.516;11.890;2023-06-22T05:33:37;26.00;61.00
42145;DHT22;27813;43.516;11.890;2023-06-22T05:37:41;26.60;60.00
42145;DHT22;27813;43.516;11.890;2023-06-22T05:41:46;27.20;58.90
42145;DHT22;27813;43.516;11.890;2023-06-22T05:45:51;27.90;57.70
42145;DHT22;27813;43.516;11.890;2023-06-22T05:49:55;28.50;56.10
42145;DHT22;27813;43.516;11.890;2023-06-22T05:53:59;29.10;54.90
42145;DHT22;27813;43.516;11.890;2023-06-22T05:58:03;29.50;54.10
42145;DHT22;27813;43.516;11.890;2023-06-22T06:02:07;30.00;53.20
42145;DHT22;27813;43.516;11.890;2023-06-22T06:06:11;30.50;52.00
42145;DHT22;27813;43.516;11.890;2023-06-22T06:10:15;31.00;51.00
42145;DHT22;27813;43.516;11.890;2023-06-22T06:14:20;31.60;50.10
42145;DHT22;27813;43.516;11.890;2023-06-22T06:18:24;32.10;49.00
42145;DHT22;27813;43.516;11.890;2023-06-22T06:22:28;32.40;48.50
42145;DHT22;27813;43.516;11.890;2023-06-22T06:26:32;32.50;48.30
42145;DHT22;27813;43.516;11.890;2023-06-22T06:30:39;32.70;47.90
42145;DHT22;27813;43.516;11.890;2023-06-22T06:34:44;33.10;47.10
42145;DHT22;27813;43.516;11.890;2023-06-22T06:38:48;33.50;46.30
42145;DHT22;27813;43.516;11.890;2023-06-22T06:42:52;34.00;45.50
42145;DHT22;27813;43.516;11.890;2023-06-22T06:46:58;34.50;44.80
42145;DHT22;27813;43.516;11.890;2023-06-22T06:51:02;34.90;44.20
42145;DHT22;27813;43.516;11.890;2023-06-22T06:55:08;35.20;43.50
42145;DHT22;27813;43.516;11.890;2023-06-22T06:59:15;35.50;42.90
42145;DHT22;27813;43.516;11.890;2023-06-22T07:03:19;35.70;42.30
42145;DHT22;27813;43.516;11.890;2023-06-22T07:07:24;35.90;41.80
42145;DHT22;27813;43.516;11.890;2023-06-22T07:11:28;35.80;41.80
42145;DHT22;27813;43.516;11.890;2023-06-22T07:15:31;35.10;43.00
42145;DHT22;27813;43.516;11.890;2023-06-22T07:19:35;34.40;44.30
42145;DHT22;27813;43.516;11.890;2023-06-22T07:23:39;33.80;45.30
42145;DHT22;27813;43.516;11.890;2023-06-22T07:27:58;33.40;46.10
42145;DHT22;27813;43.516;11.890;2023-06-22T07:32:02;33.10;46.60
42145;DHT22;27813;43.516;11.890;2023-06-22T07:36:08;33.00;46.70
42145;DHT22;27813;43.516;11.890;2023-06-22T07:40:12;33.00;46.70
42145;DHT22;27813;43.516;11.890;2023-06-22T07:44:17;33.00;46.60
42145;DHT22;27813;43.516;11.890;2023-06-22T07:48:22;33.00;46.60
42145;DHT22;27813;43.516;11.890;2023-06-22T07:52:26;33.00;46.40
42145;DHT22;27813;43.516;11.890;2023-06-22T07:56:30;33.00;46.20
42145;DHT22;27813;43.516;11.890;2023-06-22T08:00:34;33.00;46.10
42145;DHT22;27813;43.516;11.890;2023-06-22T08:04:38;33.00;45.90
42145;DHT22;27813;43.516;11.890;2023-06-22T08:08:42;33.00;46.00
42145;DHT22;27813;43.516;11.890;2023-06-22T08:12:46;33.00;45.80
42145;DHT22;27813;43.516;11.890;2023-06-22T08:16:50;33.10;45.70
42145;DHT22;27813;43.516;11.890;2023-06-22T08:20:54;33.10;45.60
42145;DHT22;27813;43.516;11.890;2023-06-22T08:24:58;33.00;45.50
42145;DHT22;27813;43.516;11.890;2023-06-22T08:29:03;32.90;45.70
42145;DHT22;27813;43.516;11.890;2023-06-22T08:33:07;32.70;46.00
42145;DHT22;27813;43.516;11.890;2023-06-22T08:37:11;32.60;46.20
42145;DHT22;27813;43.516;11.890;2023-06-22T08:41:15;32.50;46.40
42145;DHT22;27813;43.516;11.890;2023-06-22T08:45:20;32.60;46.40
42145;DHT22;27813;43.516;11.890;2023-06-22T08:49:24;32.70;46.30
42145;DHT22;27813;43.516;11.890;2023-06-22T08:53:27;33.00;46.20
42145;DHT22;27813;43.516;11.890;2023-06-22T08:57:31;33.10;45.80
42145;DHT22;27813;43.516;11.890;2023-06-22T09:01:36;33.20;45.70
42145;DHT22;27813;43.516;11.890;2023-06-22T09:05:40;33.40;45.70
42145;DHT22;27813;43.516;11.890;2023-06-22T09:09:44;33.70;45.50
42145;DHT22;27813;43.516;11.890;2023-06-22T09:13:48;34.00;45.50
42145;DHT22;27813;43.516;11.890;2023-06-22T09:17:52;34.50;45.20
42145;DHT22;27813;43.516;11.890;2023-06-22T09:21:57;35.20;44.80
42145;DHT22;27813;43.516;11.890;2023-06-22T09:26:01;36.50;43.30
42145;DHT22;27813;43.516;11.890;2023-06-22T09:30:16;38.30;40.60
42145;DHT22;27813;43.516;11.890;2023-06-22T09:34:22;39.90;38.50
42145;DHT22;27813;43.516;11.890;2023-06-22T09:38:48;41.00;36.90
42145;DHT22;27813;43.516;11.890;2023-06-22T09:42:56;41.70;35.40
42145;DHT22;27813;43.516;11.890;2023-06-22T09:47:57;42.50;34.70
42145;DHT22;27813;43.516;11.890;2023-06-22T09:52:01;43.10;33.80
42145;DHT22;27813;43.516;11.890;2023-06-22T09:56:05;43.50;33.20
42145;DHT22;27813;43.516;11.890;2023-06-22T10:00:11;43.90;32.50
42145;DHT22;27813;43.516;11.890;2023-06-22T10:04:17;44.30;32.00
42145;DHT22;27813;43.516;11.890;2023-06-22T10:08:21;44.60;31.40
42145;DHT22;27813;43.516;11.890;2023-06-22T10:12:27;44.60;31.20
42145;DHT22;27813;43.516;11.890;2023-06-22T10:16:32;44.70;30.80
42145;DHT22;27813;43.516;11.890;2023-06-22T10:20:37;45.00;30.50
42145;DHT22;27813;43.516;11.890;2023-06-22T10:24:41;45.10;30.20
42145;DHT22;27813;43.516;11.890;2023-06-22T10:28:49;45.10;30.00
42145;DHT22;27813;43.516;11.890;2023-06-22T10:33:11;45.10;29.90
42145;DHT22;27813;43.516;11.890;2023-06-22T10:37:16;45.10;29.60
42145;DHT22;27813;43.516;11.890;2023-06-22T10:41:20;45.40;29.40
42145;DHT22;27813;43.516;11.890;2023-06-22T10:45:24;45.60;29.10
42145;DHT22;27813;43.516;11.890;2023-06-22T10:49:28;45.60;28.80
42145;DHT22;27813;43.516;11.890;2023-06-22T10:53:32;45.90;28.60
42145;DHT22;27813;43.516;11.890;2023-06-22T10:57:36;46.10;28.10
42145;DHT22;27813;43.516;11.890;2023-06-22T11:01:42;46.20;27.80
42145;DHT22;27813;43.516;11.890;2023-06-22T11:05:46;46.10;27.70
42145;DHT22;27813;43.516;11.890;2023-06-22T11:09:51;46.00;27.70
42145;DHT22;27813;43.516;11.890;2023-06-22T11:13:55;46.20;27.40
42145;DHT22;27813;43.516;11.890;2023-06-22T11:17:59;46.50;27.20
42145;DHT22;27813;43.516;11.890;2023-06-22T11:22:04;46.80;26.80
42145;DHT22;27813;43.516;11.890;2023-06-22T11:26:08;46.90;26.50
42145;DHT22;27813;43.516;11.890;2023-06-22T11:30:12;47.00;26.30
42145;DHT22;27813;43.516;11.890;2023-06-22T11:34:16;46.90;26.00
42145;DHT22;27813;43.516;11.890;2023-06-22T11:38:21;46.70;26.10
42145;DHT22;27813;43.516;11.890;2023-06-22T11:42:27;46.70;25.70
42145;DHT22;27813;43.516;11.890;2023-06-22T11:46:32;46.60;25.70
42145;DHT22;27813;43.516;11.890;2023-06-22T11:50:37;46.50;25.70
42145;DHT22;27813;43.516;11.890;2023-06-22T11:54:41;46.10;25.90
42145;DHT22;27813;43.516;11.890;2023-06-22T11:58:45;46.10;26.00
42145;DHT22;27813;43.516;11.890;2023-06-22T12:02:51;46.20;26.00
42145;DHT22;27813;43.516;11.890;2023-06-22T12:06:56;46.40;25.80
42145;DHT22;27813;43.516;11.890;2023-06-22T12:11:01;46.30;25.80
42145;DHT22;27813;43.516;11.890;2023-06-22T12:15:05;46.10;25.90
42145;DHT22;27813;43.516;11.890;2023-06-22T12:19:11;46.10;26.10
42145;DHT22;27813;43.516;11.890;2023-06-22T12:23:16;46.10;26.00
42145;DHT22;27813;43.516;11.890;2023-06-22T12:27:20;46.10;26.00
42145;DHT22;27813;43.516;11.890;2023-06-22T12:31:24;46.00;25.90
42145;DHT22;27813;43.516;11.890;2023-06-22T12:35:28;45.80;25.90
42145;DHT22;27813;43.516;11.890;2023-06-22T12:39:32;45.30;26.10
42145;DHT22;27813;43.516;11.890;2023-06-22T12:43:38;44.80;26.30
42145;DHT22;27813;43.516;11.890;2023-06-22T12:47:42;44.40;26.50
42145;DHT22;27813;43.516;11.890;2023-06-22T12:51:47;44.30;26.70
42145;DHT22;27813;43.516;11.890;2023-06-22T12:55:51;44.50;26.60
42145;DHT22;27813;43.516;11.890;2023-06-22T12:59:55;44.80;26.20
42145;DHT22;27813;43.516;11.890;2023-06-22T13:04:00;44.80;26.10
42145;DHT22;27813;43.516;11.890;2023-06-22T13:08:04;44.90;26.00
42145;DHT22;27813;43.516;11.890;2023-06-22T13:12:09;45.00;26.00
42145;DHT22;27813;43.516;11.890;2023-06-22T13:16:13;45.00;25.90
42145;DHT22;27813;43.516;11.890;2023-06-22T13:20:17;45.10;25.80
42145;DHT22;27813;43.516;11.890;2023-06-22T13:24:22;45.10;25.80
42145;DHT22;27813;43.516;11.890;2023-06-22T13:28:26;45.30;25.40
42145;DHT22;27813;43.516;11.890;2023-06-22T13:32:33;45.40;25.40
42145;DHT22;27813;43.516;11.890;2023-06-22T13:36:37;45.50;25.40
42145;DHT22;27813;43.516;11.890;2023-06-22T13:40:41;45.40;25.40
42145;DHT22;27813;43.516;11.890;2023-06-22T13:44:45;45.00;25.60
42145;DHT22;27813;43.516;11.890;2023-06-22T13:48:49;44.10;26.20
42145;DHT22;27813;43.516;11.890;2023-06-22T13:52:58;43.30;26.90
42145;DHT22;27813;43.516;11.890;2023-06-22T13:57:03;43.10;27.50
42145;DHT22;27813;43.516;11.890;2023-06-22T14:01:07;43.20;27.70
42145;DHT22;27813;43.516;11.890;2023-06-22T14:05:19;43.80;27.30
42145;DHT22;27813;43.516;11.890;2023-06-22T14:09:24;44.30;27.00
42145;DHT22;27813;43.516;11.890;2023-06-22T14:13:28;44.70;26.70
42145;DHT22;27813;43.516;11.890;2023-06-22T14:17:32;44.90;26.70
42145;DHT22;27813;43.516;11.890;2023-06-22T14:21:36;45.00;26.60
42145;DHT22;27813;43.516;11.890;2023-06-22T14:25:41;45.10;26.60
42145;DHT22;27813;43.516;11.890;2023-06-22T14:29:45;44.80;26.60
42145;DHT22;27813;43.516;11.890;2023-06-22T14:33:50;44.70;26.80
42145;DHT22;27813;43.516;11.890;2023-06-22T14:37:54;44.40;26.90
42145;DHT22;27813;43.516;11.890;2023-06-22T14:41:58;44.10;27.00
42145;DHT22;27813;43.516;11.890;2023-06-22T14:46:08;43.90;27.20
42145;DHT22;27813;43.516;11.890;2023-06-22T14:50:34;43.70;27.30
42145;DHT22;27813;43.516;11.890;2023-06-22T14:54:45;43.70;27.20
42145;DHT22;27813;43.516;11.890;2023-06-22T14:59:12;43.70;27.20
42145;DHT22;27813;43.516;11.890;2023-06-22T15:03:57;43.80;27.30
42145;DHT22;27813;43.516;11.890;2023-06-22T15:08:04;43.70;27.40
42145;DHT22;27813;43.516;11.890;2023-06-22T15:12:14;43.60;27.30
42145;DHT22;27813;43.516;11.890;2023-06-22T15:16:26;42.90;27.70
42145;DHT22;27813;43.516;11.890;2023-06-22T15:20:31;42.00;28.30
42145;DHT22;27813;43.516;11.890;2023-06-22T15:24:36;41.20;29.00
42145;DHT22;27813;43.516;11.890;2023-06-22T15:28:42;40.60;29.70
42145;DHT22;27813;43.516;11.890;2023-06-22T15:32:46;40.30;30.20
42145;DHT22;27813;43.516;11.890;2023-06-22T15:36:53;40.30;30.60
42145;DHT22;27813;43.516;11.890;2023-06-22T15:40:57;40.40;30.60
42145;DHT22;27813;43.516;11.890;2023-06-22T15:45:06;40.40;30.80
42145;DHT22;27813;43.516;11.890;2023-06-22T15:49:10;40.50;31.00
42145;DHT22;27813;43.516;11.890;2023-06-22T15:53:15;40.40;31.10
42145;DHT22;27813;43.516;11.890;2023-06-22T15:57:20;40.20;31.40
42145;DHT22;27813;43.516;11.890;2023-06-22T16:01:32;39.80;32.10
42145;DHT22;27813;43.516;11.890;2023-06-22T16:05:42;39.30;32.70
42145;DHT22;27813;43.516;11.890;2023-06-22T16:09:47;38.90;33.20
42145;DHT22;27813;43.516;11.890;2023-06-22T16:13:51;38.50;33.70
42145;DHT22;27813;43.516;11.890;2023-06-22T16:17:56;38.30;34.00
42145;DHT22;27813;43.516;11.890;2023-06-22T16:22:00;38.10;34.40
42145;DHT22;27813;43.516;11.890;2023-06-22T16:26:05;37.80;34.80
42145;DHT22;27813;43.516;11.890;2023-06-22T16:30:10;37.50;35.30
42145;DHT22;27813;43.516;11.890;2023-06-22T16:34:16;37.30;35.80
42145;DHT22;27813;43.516;11.890;2023-06-22T16:38:21;37.00;36.20
42145;DHT22;27813;43.516;11.890;2023-06-22T16:42:29;36.70;36.90
42145;DHT22;27813;43.516;11.890;2023-06-22T16:46:34;36.40;37.90
42145;DHT22;27813;43.516;11.890;2023-06-22T16:50:39;36.10;38.70
42145;DHT22;27813;43.516;11.890;2023-06-22T16:54:46;36.00;39.20
42145;DHT22;27813;43.516;11.890;2023-06-22T16:59:05;35.80;39.30
42145;DHT22;27813;43.516;11.890;2023-06-22T17:03:21;35.60;39.80
42145;DHT22;27813;43.516;11.890;2023-06-22T17:07:29;35.40;40.30
42145;DHT22;27813;43.516;11.890;2023-06-22T17:11:34;35.30;40.70
42145;DHT22;27813;43.516;11.890;2023-06-22T17:15:40;35.20;40.90
42145;DHT22;27813;43.516;11.890;2023-06-22T17:19:45;35.10;41.30
42145;DHT22;27813;43.516;11.890;2023-06-22T17:23:51;35.10;41.40
42145;DHT22;27813;43.516;11.890;2023-06-22T17:28:02;35.00;41.20
42145;DHT22;27813;43.516;11.890;2023-06-22T17:32:08;35.00;40.80
42145;DHT22;27813;43.516;11.890;2023-06-22T17:36:15;34.90;40.40
42145;DHT22;27813;43.516;11.890;2023-06-22T17:40:32;34.80;40.30
42145;DHT22;27813;43.516;11.890;2023-06-22T17:45:17;34.50;40.40
42145;DHT22;27813;43.516;11.890;2023-06-22T17:49:32;34.20;40.50
42145;DHT22;27813;43.516;11.890;2023-06-22T17:53:59;33.90;40.80
42145;DHT22;27813;43.516;11.890;2023-06-22T17:58:34;33.60;41.10
42145;DHT22;27813;43.516;11.890;2023-06-22T18:02:52;33.30;41.40
42145;DHT22;27813;43.516;11.890;2023-06-22T18:07:12;33.00;41.90
42145;DHT22;27813;43.516;11.890;2023-06-22T18:11:40;32.80;42.10
42145;DHT22;27813;43.516;11.890;2023-06-22T18:15:54;32.50;42.30
42145;DHT22;27813;43.516;11.890;2023-06-22T18:20:09;32.30;42.90
42145;DHT22;27813;43.516;11.890;2023-06-22T18:24:24;31.90;43.80
42145;DHT22;27813;43.516;11.890;2023-06-22T18:28:32;31.50;45.00
42145;DHT22;27813;43.516;11.890;2023-06-22T18:32:58;31.10;45.50
42145;DHT22;27813;43.516;11.890;2023-06-22T18:37:15;30.90;45.80
42145;DHT22;27813;43.516;11.890;2023-06-22T18:41:24;30.60;46.10
42145;DHT22;27813;43.516;11.890;2023-06-22T18:45:29;30.30;46.80
42145;DHT22;27813;43.516;11.890;2023-06-22T18:54:02;29.60;47.90
42145;DHT22;27813;43.516;11.890;2023-06-22T18:58:17;29.30;48.70
42145;DHT22;27813;43.516;11.890;2023-06-22T19:06:57;28.60;49.50
42145;DHT22;27813;43.516;11.890;2023-06-22T19:11:11;28.30;49.90
42145;DHT22;27813;43.516;11.890;2023-06-22T19:15:16;28.00;50.40
42145;DHT22;27813;43.516;11.890;2023-06-22T19:19:24;27.70;50.80
42145;DHT22;27813;43.516;11.890;2023-06-22T19:27:33;27.00;51.70
42145;DHT22;27813;43.516;11.890;2023-06-22T19:31:43;26.80;52.00
42145;DHT22;27813;43.516;11.890;2023-06-22T19:35:50;26.50;52.40
42145;DHT22;27813;43.516;11.890;2023-06-22T19:39:57;26.10;52.80
42145;DHT22;27813;43.516;11.890;2023-06-22T19:44:02;26.00;53.20
42145;DHT22;27813;43.516;11.890;2023-06-22T19:48:09;25.70;53.60
42145;DHT22;27813;43.516;11.890;2023-06-22T19:52:13;25.50;54.00
42145;DHT22;27813;43.516;11.890;2023-06-22T19:56:25;25.20;54.30
42145;DHT22;27813;43.516;11.890;2023-06-22T20:00:39;25.00;54.70
42145;DHT22;27813;43.516;11.890;2023-06-22T20:04:44;24.90;54.80
42145;DHT22;27813;43.516;11.890;2023-06-22T20:08:50;24.70;54.90
42145;DHT22;27813;43.516;11.890;2023-06-22T20:13:02;24.50;55.00
42145;DHT22;27813;43.516;11.890;2023-06-22T20:17:15;24.40;55.50
42145;DHT22;27813;43.516;11.890;2023-06-22T20:21:20;24.20;55.50
42145;DHT22;27813;43.516;11.890;2023-06-22T20:25:30;24.00;55.90
42145;DHT22;27813;43.516;11.890;2023-06-22T20:29:36;23.90;56.10
42145;DHT22;27813;43.516;11.890;2023-06-22T20:33:42;23.80;56.70
42145;DHT22;27813;43.516;11.890;2023-06-22T20:37:48;23.60;56.80
42145;DHT22;27813;43.516;11.890;2023-06-22T20:41:52;23.50;56.90
42145;DHT22;27813;43.516;11.890;2023-06-22T20:45:58;23.40;57.00
42145;DHT22;27813;43.516;11.890;2023-06-22T20:50:06;23.40;57.10
42145;DHT22;27813;43.516;11.890;2023-06-22T20:54:10;23.20;57.30
42145;DHT22;27813;43.516;11.890;2023-06-22T20:58:16;23.00;57.80
42145;DHT22;27813;43.516;11.890;2023-06-22T21:02:22;22.80;58.00
42145;DHT22;27813;43.516;11.890;2023-06-22T21:06:27;22.70;58.50
42145;DHT22;27813;43.516;11.890;2023-06-22T21:10:31;22.50;58.70
42145;DHT22;27813;43.516;11.890;2023-06-22T21:14:35;22.40;59.00
42145;DHT22;27813;43.516;11.890;2023-06-22T21:18:39;22.20;59.10
42145;DHT22;27813;43.516;11.890;2023-06-22T21:22:52;22.20;59.50
42145;DHT22;27813;43.516;11.890;2023-06-22T21:26:57;22.10;59.50
42145;DHT22;27813;43.516;11.890;2023-06-22T21:31:05;22.00;59.60
42145;DHT22;27813;43.516;11.890;2023-06-22T21:35:12;22.00;59.90
42145;DHT22;27813;43.516;11.890;2023-06-22T21:39:22;22.00;59.80
42145;DHT22;27813;43.516;11.890;2023-06-22T21:43:27;22.00;59.80
42145;DHT22;27813;43.516;11.890;2023-06-22T21:47:34;22.00;59.90
42145;DHT22;27813;43.516;11.890;2023-06-22T21:51:49;22.00;59.80
42145;DHT22;27813;43.516;11.890;2023-06-22T21:56:03;22.00;59.60
42145;DHT22;27813;43.516;11.890;2023-06-22T22:00:09;21.80;60.00
42145;DHT22;27813;43.516;11.890;2023-06-22T22:04:22;21.60;60.40
42145;DHT22;27813;43.516;11.890;2023-06-22T22:08:40;21.50;60.90
42145;DHT22;27813;43.516;11.890;2023-06-22T22:12:46;21.40;61.20
42145;DHT22;27813;43.516;11.890;2023-06-22T22:17:03;21.40;61.20
42145;DHT22;27813;43.516;11.890;2023-06-22T22:21:32;21.30;61.20
42145;DHT22;27813;43.516;11.890;2023-06-22T22:25:57;21.20;61.20
42145;DHT22;27813;43.516;11.890;2023-06-22T22:30:01;21.20;61.30
42145;DHT22;27813;43.516;11.890;2023-06-22T22:34:07;21.10;61.50
42145;DHT22;27813;43.516;11.890;2023-06-22T22:38:15;21.10;61.70
42145;DHT22;27813;43.516;11.890;2023-06-22T22:42:23;21.00;61.80
42145;DHT22;27813;43.516;11.890;2023-06-22T22:46:28;20.90;61.80
42145;DHT22;27813;43.516;11.890;2023-06-22T22:50:33;20.80;61.90
42145;DHT22;27813;43.516;11.890;2023-06-22T22:54:40;20.60;62.20
42145;DHT22;27813;43.516;11.890;2023-06-22T22:58:49;20.50;62.70
42145;DHT22;27813;43.516;11.890;2023-06-22T23:02:54;20.50;62.60
42145;DHT22;27813;43.516;11.890;2023-06-22T23:06:58;20.40;62.70
42145;DHT22;27813;43.516;11.890;2023-06-22T23:11:05;20.20;62.80
42145;DHT22;27813;43.516;11.890;2023-06-22T23:15:09;20.10;62.90
42145;DHT22;27813;43.516;11.890;2023-06-22T23:19:15;20.00;63.40
42145;DHT22;27813;43.516;11.890;2023-06-22T23:23:24;20.00;63.50
42145;DHT22;27813;43.516;11.890;2023-06-22T23:27:28;19.90;63.50
